sensor_id;sensor_type;location;lat;lon;timestamp;temperature;humidity
1506;DHT22;744;51.436;7.356;2022-08-01T17:45:16;25.40;42.40
1506;DHT22;744;51.436;7.356;2022-08-01T17:47:53;25.30;42.40
1506;DHT22;744;51.436;7.356;2022-08-01T17:50:20;25.30;42.40
1506;DHT22;744;51.436;7.356;2022-08-01T17:52:47;25.40;42.40
1506;DHT22;744;51.436;7.356;2022-08-01T17:55:14;25.40;42.40
1506;DHT22;744;51.436;7.356;2022-08-01T17:58:01;25.40;42.40
1506;DHT22;744;51.436;7.356;2022-08-01T18:00:31;25.30;42.40
1506;DHT22;744;51.436;7.356;2022-08-01T18:02:59;25.30;42.40
1506;DHT22;744;51.436;7.356;2022-08-01T18:05:27;25.30;42.40
1506;DHT22;744;51.436;7.356;2022-08-01T18:08:04;25.30;42.40
1506;DHT22;744;51.436;7.356;2022-08-01T18:10:33;25.30;42.40
1506;DHT22;744;51.436;7.356;2022-08-01T18:13:05;25.30;42.40
1506;DHT22;744;51.436;7.356;2022-08-01T18:15:33;25.20;42.30
1506;DHT22;744;51.436;7.356;2022-08-01T18:18:00;25.10;42.20
1506;DHT22;744;51.436;7.356;2022-08-01T18:20:27;25.10;42.20
1506;DHT22;744;51.436;7.356;2022-08-01T18:22:54;25.10;42.20
1506;DHT22;744;51.436;7.356;2022-08-01T18:25:21;25.10;42.20
1506;DHT22;744;51.436;7.356;2022-08-01T18:27:49;25.00;42.20
1506;DHT22;744;51.436;7.356;2022-08-01T18:30:36;25.00;42.20
1506;DHT22;744;51.436;7.356;2022-08-01T18:33:03;25.10;42.30
1506;DHT22;744;51.436;7.356;2022-08-01T18:35:29;25.20;42.30
1506;DHT22;744;51.436;7.356;2022-08-01T18:38:16;25.30;42.40
1506;DHT22;744;51.436;7.356;2022-08-01T18:40:45;25.30;42.40
1506;DHT22;744;51.436;7.356;2022-08-01T18:43:12;25.30;42.40
1506;DHT22;744;51.436;7.356;2022-08-01T18:45:39;25.30;42.40
1506;DHT22;744;51.436;7.356;2022-08-01T18:48:09;25.50;42.50
1506;DHT22;744;51.436;7.356;2022-08-01T18:50:37;25.60;42.60
1506;DHT22;744;51.436;7.356;2022-08-01T18:53:04;25.70;42.60
1506;DHT22;744;51.436;7.356;2022-08-01T18:55:31;25.60;42.60
1506;DHT22;744;51.436;7.356;2022-08-01T18:57:59;25.60;42.60
1506;DHT22;744;51.436;7.356;2022-08-01T19:00:26;25.60;42.60
1506;DHT22;744;51.436;7.356;2022-08-01T19:02:53;25.60;42.60
1506;DHT22;744;51.436;7.356;2022-08-01T19:05:20;25.70;42.60
1506;DHT22;744;51.436;7.356;2022-08-01T19:07:47;25.70;42.60
1506;DHT22;744;51.436;7.356;2022-08-01T19:10:37;26.00;42.80
1506;DHT22;744;51.436;7.356;2022-08-01T19:13:04;25.90;42.70
1506;DHT22;744;51.436;7.356;2022-08-01T19:15:30;25.80;42.70
1506;DHT22;744;51.436;7.356;2022-08-01T19:17:57;25.70;42.80
1506;DHT22;744;51.436;7.356;2022-08-01T19:20:24;25.70;42.60
1506;DHT22;744;51.436;7.356;2022-08-01T19:22:51;25.50;42.50
1506;DHT22;744;51.436;7.356;2022-08-01T19:25:18;25.30;42.40
1506;DHT22;744;51.436;7.356;2022-08-01T19:27:47;25.10;42.20
1506;DHT22;744;51.436;7.356;2022-08-01T19:30:16;25.10;42.20
1506;DHT22;744;51.436;7.356;2022-08-01T19:32:45;25.00;43.50
1506;DHT22;744;51.436;7.356;2022-08-01T19:35:14;25.10;43.50
1506;DHT22;744;51.436;7.356;2022-08-01T19:37:43;25.10;44.00
1506;DHT22;744;51.436;7.356;2022-08-01T19:40:13;25.20;44.30
1506;DHT22;744;51.436;7.356;2022-08-01T19:42:54;25.20;44.30
1506;DHT22;744;51.436;7.356;2022-08-01T19:45:22;25.30;44.30
1506;DHT22;744;51.436;7.356;2022-08-01T19:47:52;25.20;43.50
1506;DHT22;744;51.436;7.356;2022-08-01T19:50:25;25.20;43.00
1506;DHT22;744;51.436;7.356;2022-08-01T19:52:56;25.10;43.50
1506;DHT22;744;51.436;7.356;2022-08-01T19:55:26;25.10;43.80
1506;DHT22;744;51.436;7.356;2022-08-01T19:57:54;25.10;43.80
1506;DHT22;744;51.436;7.356;2022-08-01T20:00:42;25.20;44.20
1506;DHT22;744;51.436;7.356;2022-08-01T20:03:10;25.20;44.30
1506;DHT22;744;51.436;7.356;2022-08-01T20:05:37;25.20;44.50
1506;DHT22;744;51.436;7.356;2022-08-01T20:08:06;25.10;44.60
1506;DHT22;744;51.436;7.356;2022-08-01T20:10:33;25.10;44.70
1506;DHT22;744;51.436;7.356;2022-08-01T20:13:00;25.00;44.70
1506;DHT22;744;51.436;7.356;2022-08-01T20:15:28;25.00;45.00
1506;DHT22;744;51.436;7.356;2022-08-01T20:17:58;25.00;45.00
1506;DHT22;744;51.436;7.356;2022-08-01T20:20:25;25.00;45.00
1506;DHT22;744;51.436;7.356;2022-08-01T20:22:55;24.90;44.80
1506;DHT22;744;51.436;7.356;2022-08-01T20:25:27;24.90;44.80
1506;DHT22;744;51.436;7.356;2022-08-01T20:28:09;24.90;44.60
1506;DHT22;744;51.436;7.356;2022-08-01T20:30:38;24.90;44.80
1506;DHT22;744;51.436;7.356;2022-08-01T20:33:06;24.90;44.80
1506;DHT22;744;51.436;7.356;2022-08-01T20:35:35;24.80;44.30
1506;DHT22;744;51.436;7.356;2022-08-01T20:38:24;24.80;44.00
1506;DHT22;744;51.436;7.356;2022-08-01T20:40:55;24.70;44.30
1506;DHT22;744;51.436;7.356;2022-08-01T20:43:25;24.60;44.00
1506;DHT22;744;51.436;7.356;2022-08-01T20:45:54;24.60;44.60
1506;DHT22;744;51.436;7.356;2022-08-01T20:48:22;24.60;45.00
1506;DHT22;744;51.436;7.356;2022-08-01T20:50:50;24.60;45.00
1506;DHT22;744;51.436;7.356;2022-08-01T20:53:37;24.60;45.00
1506;DHT22;744;51.436;7.356;2022-08-01T20:59:09;24.50;45.20
1506;DHT22;744;51.436;7.356;2022-08-01T21:02:15;24.40;45.20
1506;DHT22;744;51.436;7.356;2022-08-01T21:10:12;24.10;46.00
1506;DHT22;744;51.436;7.356;2022-08-01T21:15:30;24.00;45.90
1506;DHT22;744;51.436;7.356;2022-08-01T21:20:33;23.80;45.80
1506;DHT22;744;51.436;7.356;2022-08-01T21:25:51;23.80;45.80
1506;DHT22;744;51.436;7.356;2022-08-01T21:28:19;23.70;46.20
1506;DHT22;744;51.436;7.356;2022-08-01T21:30:48;23.60;46.20
1506;DHT22;744;51.436;7.356;2022-08-01T21:33:23;23.50;46.20
1506;DHT22;744;51.436;7.356;2022-08-01T21:35:55;23.50;46.40
1506;DHT22;744;51.436;7.356;2022-08-01T21:38:30;23.40;46.60
1506;DHT22;744;51.436;7.356;2022-08-01T21:41:01;23.40;46.70
1506;DHT22;744;51.436;7.356;2022-08-01T21:43:31;23.40;46.70
1506;DHT22;744;51.436;7.356;2022-08-01T21:45:58;23.40;46.70
1506;DHT22;744;51.436;7.356;2022-08-01T21:48:26;23.30;46.80
1506;DHT22;744;51.436;7.356;2022-08-01T21:51:00;23.20;46.80
1506;DHT22;744;51.436;7.356;2022-08-01T21:56:35;23.10;46.90
1506;DHT22;744;51.436;7.356;2022-08-01T22:02:03;23.10;47.00
1506;DHT22;744;51.436;7.356;2022-08-01T22:04:47;23.00;46.90
1506;DHT22;744;51.436;7.356;2022-08-01T22:07:15;22.90;47.00
1506;DHT22;744;51.436;7.356;2022-08-01T22:09:47;22.80;47.00
1506;DHT22;744;51.436;7.356;2022-08-01T22:12:16;22.80;47.00
1506;DHT22;744;51.436;7.356;2022-08-01T22:14:47;22.90;47.00
1506;DHT22;744;51.436;7.356;2022-08-01T22:17:20;22.80;46.90
1506;DHT22;744;51.436;7.356;2022-08-01T22:19:49;22.80;46.80
1506;DHT22;744;51.436;7.356;2022-08-01T22:22:23;22.80;46.80
1506;DHT22;744;51.436;7.356;2022-08-01T22:25:11;22.70;46.80
1506;DHT22;744;51.436;7.356;2022-08-01T22:27:38;22.70;46.90
1506;DHT22;744;51.436;7.356;2022-08-01T22:30:28;22.60;47.00
1506;DHT22;744;51.436;7.356;2022-08-01T22:32:57;22.50;47.20
1506;DHT22;744;51.436;7.356;2022-08-01T22:35:43;22.50;47.20
1506;DHT22;744;51.436;7.356;2022-08-01T22:38:11;22.40;47.50
1506;DHT22;744;51.436;7.356;2022-08-01T22:40:43;22.40;47.70
1506;DHT22;744;51.436;7.356;2022-08-01T22:43:24;22.40;47.70
1506;DHT22;744;51.436;7.356;2022-08-01T22:48:51;22.30;47.60
1506;DHT22;744;51.436;7.356;2022-08-01T22:54:11;22.30;47.50
1506;DHT22;744;51.436;7.356;2022-08-01T22:56:42;22.20;47.60
1506;DHT22;744;51.436;7.356;2022-08-01T22:59:22;22.20;47.60
1506;DHT22;744;51.436;7.356;2022-08-01T23:02:09;22.20;47.70
1506;DHT22;744;51.436;7.356;2022-08-01T23:04:48;22.10;47.80
1506;DHT22;744;51.436;7.356;2022-08-01T23:07:22;22.10;48.00
1506;DHT22;744;51.436;7.356;2022-08-01T23:09:50;22.00;48.00
1506;DHT22;744;51.436;7.356;2022-08-01T23:12:22;21.90;48.30
1506;DHT22;744;51.436;7.356;2022-08-01T23:14:55;21.90;48.20
1506;DHT22;744;51.436;7.356;2022-08-01T23:17:24;21.90;48.10
1506;DHT22;744;51.436;7.356;2022-08-01T23:19:57;22.00;47.80
1506;DHT22;744;51.436;7.356;2022-08-01T23:22:30;22.10;47.60
1506;DHT22;744;51.436;7.356;2022-08-01T23:25:00;22.10;48.20
1506;DHT22;744;51.436;7.356;2022-08-01T23:27:35;22.10;47.60
1506;DHT22;744;51.436;7.356;2022-08-01T23:30:24;22.10;47.50
1506;DHT22;744;51.436;7.356;2022-08-01T23:32:52;22.00;47.50
1506;DHT22;744;51.436;7.356;2022-08-01T23:35:19;21.90;47.60
1506;DHT22;744;51.436;7.356;2022-08-01T23:37:46;21.90;47.60
1506;DHT22;744;51.436;7.356;2022-08-01T23:40:12;21.80;47.70
1506;DHT22;744;51.436;7.356;2022-08-01T23:42:39;21.80;47.80
1506;DHT22;744;51.436;7.356;2022-08-01T23:45:06;21.70;48.20
1506;DHT22;744;51.436;7.356;2022-08-01T23:47:33;21.70;48.40
1506;DHT22;744;51.436;7.356;2022-08-01T23:50:00;21.70;48.50
1506;DHT22;744;51.436;7.356;2022-08-01T23:52:27;21.70;48.40
1506;DHT22;744;51.436;7.356;2022-08-01T23:54:58;21.60;48.30
1506;DHT22;744;51.436;7.356;2022-08-01T23:57:40;21.50;48.30
